Weather at Cocolife Building Heliport

Public forecast

Using degrees Celsius for public forecast. Weather courtesy of forecast.io.

Closest aviation weather report (METAR) to Cocolife Building Heliport

Closest report is Ninoy Aquino International Airport, 3.0 nm (5.6 km) S. Retrieved 2020/11/29 02:00 UTC (2 hours ago):

RPLL 290200Z 33006KT 270V350 9999 BKN015 BKN090 26/24 Q1013 NOSIG RMK A2991

Closest aviation forecast (TAF) to Cocolife Building Heliport

Closest forecast is Ninoy Aquino International Airport, 3.0 nm (5.6 km) S. Retrieved 2020-11-29 00:00 UTC (4 hours ago):

TAF RPLL 282300Z 2900/3006 10008KT 9999 FEW023 SCT100 TX31/2904Z TN25/2921Z TEMPO 2900/2906 03010KT 7000 -SHRA SCT023 BKN090 TEMPO 2906/2912 11014KT 6000 SHRA FEW022CB SCT023 BKN090